Time;durP1;ratioP1;P1;durP2;ratioP2;P2;SDS_P1;SDS_P2;PMS_P1;PMS_P2;Temp;Humidity;BMP_temperature;BMP_pressure;BME280_temperature;BME280_humidity;BME280_pressure;Samples;Min_cycle;Max_cycle;Signal;HPM_P1;HPM_P2
2021/09/24 00:01:05;;;;;;;4.37;3.67;;;17.00;71.80;;;;;;5003342;28;20543;-43
2021/09/24 00:03:33;;;;;;;3.70;3.40;;;17.00;71.90;;;;;;5002596;28;20452;-43
2021/09/24 00:06:00;;;;;;;3.57;2.97;;;16.90;72.00;;;;;;4999529;28;20448;-43
2021/09/24 00:08:27;;;;;;;4.10;3.30;;;17.00;72.10;;;;;;5001561;28;20465;-43
2021/09/24 00:10:54;;;;;;;4.00;3.20;;;16.90;72.20;;;;;;4999258;28;20518;-43
2021/09/24 00:13:21;;;;;;;4.80;4.07;;;16.90;72.20;;;;;;5000650;28;20476;-43
2021/09/24 00:15:48;;;;;;;4.37;3.30;;;16.90;72.20;;;;;;5001255;28;20865;-43
2021/09/24 00:18:15;;;;;;;4.17;3.20;;;16.90;72.20;;;;;;5011662;28;20465;-43
2021/09/24 00:20:42;;;;;;;3.43;2.97;;;16.90;72.30;;;;;;5005285;28;20444;-43
2021/09/24 00:23:09;;;;;;;3.97;3.60;;;16.90;72.10;;;;;;5003914;28;21037;-43
2021/09/24 00:25:36;;;;;;;13.40;3.97;;;16.90;72.00;;;;;;5006956;28;20449;-43
2021/09/24 00:28:05;;;;;;;4.17;3.57;;;16.90;72.00;;;;;;4999013;28;20524;-43
2021/09/24 00:30:33;;;;;;;5.17;4.10;;;16.90;71.90;;;;;;5000914;28;20441;-43
2021/09/24 00:33:00;;;;;;;4.03;3.00;;;16.90;71.90;;;;;;5001317;28;20483;-43
2021/09/24 00:35:26;;;;;;;4.50;3.53;;;16.90;71.90;;;;;;5002709;28;20477;-43
2021/09/24 00:37:53;;;;;;;3.80;3.27;;;17.00;72.00;;;;;;5003354;28;20498;-43
2021/09/24 00:40:20;;;;;;;4.83;3.50;;;17.00;72.00;;;;;;5019019;28;20854;-43
2021/09/24 00:42:47;;;;;;;8.17;3.70;;;17.00;72.10;;;;;;5001179;28;20508;-43
2021/09/24 00:45:14;;;;;;;4.20;3.80;;;17.00;72.10;;;;;;5005158;28;20472;-43
2021/09/24 00:47:40;;;;;;;5.40;3.63;;;17.00;72.00;;;;;;5005315;28;20882;-43
2021/09/24 00:50:08;;;;;;;4.47;4.07;;;17.00;72.10;;;;;;5002848;28;20453;-43
2021/09/24 00:52:35;;;;;;;7.60;4.33;;;17.00;72.00;;;;;;5002144;28;20467;-43
2021/09/24 00:55:04;;;;;;;4.70;4.23;;;17.00;72.10;;;;;;5002873;28;20465;-43
2021/09/24 00:57:31;;;;;;;4.17;3.40;;;17.00;72.00;;;;;;5004166;28;21021;-43
2021/09/24 00:59:57;;;;;;;4.57;4.10;;;17.00;72.00;;;;;;5002935;28;20514;-43
2021/09/24 01:02:24;;;;;;;5.03;4.33;;;17.00;72.10;;;;;;5000149;28;20493;-43
2021/09/24 01:04:52;;;;;;;5.80;4.30;;;16.90;72.10;;;;;;5005407;28;20750;-43
2021/09/24 01:07:19;;;;;;;7.00;4.10;;;16.90;72.10;;;;;;5002468;28;20566;-43
2021/09/24 01:09:45;;;;;;;5.67;5.07;;;16.90;72.30;;;;;;5004947;28;20457;-44
2021/09/24 01:12:12;;;;;;;5.83;4.67;;;16.90;72.30;;;;;;5005830;28;20547;-43
2021/09/24 01:14:39;;;;;;;5.53;4.33;;;16.90;72.40;;;;;;4998421;28;20520;-43
2021/09/24 01:17:06;;;;;;;4.43;4.03;;;16.90;72.40;;;;;;5005212;28;20890;-43
2021/09/24 01:19:33;;;;;;;4.47;3.47;;;16.90;72.50;;;;;;5006383;28;20464;-43
2021/09/24 01:22:00;;;;;;;8.47;4.77;;;16.90;72.50;;;;;;5005360;28;21100;-43
2021/09/24 01:24:27;;;;;;;6.47;3.87;;;16.80;72.60;;;;;;5016374;28;21025;-43
2021/09/24 01:26:55;;;;;;;5.47;4.47;;;16.80;72.80;;;;;;5004796;28;20499;-43
2021/09/24 01:29:25;;;;;;;4.47;3.63;;;16.80;72.90;;;;;;5017846;28;20457;-43
2021/09/24 01:31:55;;;;;;;4.70;3.73;;;16.80;72.90;;;;;;5002011;28;20472;-43
2021/09/24 01:34:22;;;;;;;4.63;4.17;;;16.80;72.90;;;;;;5005342;28;20511;-43
2021/09/24 01:36:49;;;;;;;5.67;4.30;;;16.80;73.00;;;;;;5002122;28;20514;-43
2021/09/24 01:39:15;;;;;;;6.90;4.30;;;16.70;73.10;;;;;;5004362;28;20881;-43
2021/09/24 01:41:45;;;;;;;4.50;4.10;;;16.70;73.20;;;;;;5002720;28;20988;-43
2021/09/24 01:44:13;;;;;;;4.40;3.83;;;16.70;73.20;;;;;;5003417;28;20492;-43
2021/09/24 01:46:44;;;;;;;5.73;4.20;;;16.70;73.30;;;;;;5000848;28;20562;-43
2021/09/24 01:49:11;;;;;;;5.00;4.50;;;16.70;73.40;;;;;;5002223;28;20719;-43
2021/09/24 01:51:42;;;;;;;5.53;4.70;;;16.70;73.30;;;;;;5001081;28;20457;-43
2021/09/24 01:54:10;;;;;;;5.13;4.60;;;16.70;73.30;;;;;;5002276;28;20547;-43
2021/09/24 01:56:37;;;;;;;4.30;3.93;;;16.70;73.40;;;;;;5003728;28;20552;-43
2021/09/24 01:59:04;;;;;;;4.33;3.93;;;16.70;73.60;;;;;;5018242;28;21048;-43
2021/09/24 02:01:31;;;;;;;5.37;4.27;;;16.60;73.60;;;;;;5003693;28;21027;-43
2021/09/24 02:03:59;;;;;;;4.90;4.10;;;16.60;73.70;;;;;;5004310;28;20467;-43
2021/09/24 02:06:26;;;;;;;4.93;4.47;;;16.60;73.80;;;;;;5003368;28;20466;-43
2021/09/24 02:08:53;;;;;;;4.77;4.13;;;16.60;73.90;;;;;;4999305;28;20799;-43
2021/09/24 02:11:20;;;;;;;4.77;4.30;;;16.60;74.00;;;;;;5007028;28;20442;-43
2021/09/24 02:13:47;;;;;;;5.00;4.10;;;16.60;73.90;;;;;;5017078;28;20527;-43
2021/09/24 02:16:14;;;;;;;5.70;4.67;;;16.60;73.90;;;;;;5002282;28;20532;-46
2021/09/24 02:18:41;;;;;;;4.10;3.70;;;16.60;73.90;;;;;;5007852;28;20958;-47
2021/09/24 02:21:09;;;;;;;5.10;4.63;;;16.60;74.00;;;;;;5006287;28;20571;-47
2021/09/24 02:23:37;;;;;;;6.87;3.87;;;16.60;74.10;;;;;;5019593;28;20500;-47
2021/09/24 02:26:04;;;;;;;6.43;4.83;;;16.60;74.10;;;;;;5004478;28;20445;-47
2021/09/24 02:28:32;;;;;;;4.67;4.23;;;16.50;74.20;;;;;;5004258;28;20483;-47
2021/09/24 02:30:59;;;;;;;4.20;3.83;;;16.50;74.30;;;;;;5009496;28;20515;-47
2021/09/24 02:33:27;;;;;;;20.17;4.93;;;16.50;74.40;;;;;;5006186;28;20464;-47
2021/09/24 02:35:54;;;;;;;4.30;3.83;;;16.50;74.40;;;;;;5007222;28;20467;-47
2021/09/24 02:38:22;;;;;;;4.93;4.40;;;16.50;74.50;;;;;;5004894;28;20507;-47
2021/09/24 02:40:48;;;;;;;5.03;4.53;;;16.40;74.60;;;;;;5005751;28;20515;-47
2021/09/24 02:43:15;;;;;;;4.87;4.00;;;16.40;74.70;;;;;;5005417;28;20488;-47
2021/09/24 02:45:42;;;;;;;5.37;4.43;;;16.40;74.70;;;;;;5005896;28;20506;-47
2021/09/24 02:48:09;;;;;;;5.27;4.77;;;16.40;74.70;;;;;;5003360;28;20507;-47
2021/09/24 02:50:36;;;;;;;5.07;3.80;;;16.40;74.70;;;;;;5006035;28;20541;-47
2021/09/24 02:53:03;;;;;;;5.83;4.40;;;16.30;74.90;;;;;;5020059;28;20473;-47
2021/09/24 02:55:30;;;;;;;7.90;4.30;;;16.30;74.90;;;;;;5004763;28;20540;-46
2021/09/24 02:57:57;;;;;;;5.03;3.70;;;16.30;74.90;;;;;;5003790;28;20452;-46
2021/09/24 03:00:26;;;;;;;5.63;4.00;;;16.30;74.90;;;;;;4996802;28;20963;-46
2021/09/24 03:02:54;;;;;;;4.20;3.83;;;16.20;75.00;;;;;;5005455;28;20506;-46
2021/09/24 03:05:21;;;;;;;7.00;4.03;;;16.20;75.00;;;;;;5004092;28;20477;-46
2021/09/24 03:07:49;;;;;;;4.50;4.10;;;16.20;75.10;;;;;;4999095;28;20480;-46
2021/09/24 03:10:16;;;;;;;5.50;4.70;;;16.20;75.30;;;;;;5003632;28;21015;-46
2021/09/24 03:12:44;;;;;;;6.30;4.93;;;16.20;75.40;;;;;;5003411;28;20459;-46
2021/09/24 03:15:12;;;;;;;5.40;4.70;;;16.20;75.30;;;;;;5001978;28;20862;-46
2021/09/24 03:17:39;;;;;;;5.07;4.57;;;16.20;75.40;;;;;;4997397;28;20459;-46
2021/09/24 03:20:08;;;;;;;5.37;4.80;;;16.20;75.40;;;;;;4999362;28;20958;-46
2021/09/24 03:22:35;;;;;;;6.27;4.67;;;16.20;75.40;;;;;;5002542;28;20485;-46
2021/09/24 03:25:02;;;;;;;5.10;4.60;;;16.10;75.50;;;;;;5001862;28;21001;-45
2021/09/24 03:27:29;;;;;;;5.67;4.93;;;16.20;75.50;;;;;;5006788;28;20570;-45
2021/09/24 03:29:56;;;;;;;6.93;4.40;;;16.10;75.70;;;;;;5001535;28;20536;-45
2021/09/24 03:32:23;;;;;;;4.10;3.70;;;16.20;75.60;;;;;;5000031;28;20548;-45
2021/09/24 03:34:50;;;;;;;6.27;5.13;;;16.20;75.60;;;;;;5002927;28;20468;-45
2021/09/24 03:37:17;;;;;;;7.07;5.20;;;16.10;75.80;;;;;;5001330;28;20951;-45
2021/09/24 03:39:44;;;;;;;6.30;5.17;;;16.10;75.80;;;;;;5004738;28;20500;-45
2021/09/24 03:42:11;;;;;;;4.93;4.43;;;16.10;75.90;;;;;;5005750;28;20499;-45
2021/09/24 03:44:38;;;;;;;7.47;4.00;;;16.00;76.00;;;;;;5003777;28;21021;-45
2021/09/24 03:47:05;;;;;;;5.83;4.40;;;16.00;76.10;;;;;;5002934;28;20543;-45
2021/09/24 03:49:32;;;;;;;5.40;3.90;;;16.00;76.00;;;;;;5000629;28;21013;-46
2021/09/24 03:52:00;;;;;;;6.13;4.20;;;16.00;76.00;;;;;;5018825;28;20441;-46
2021/09/24 03:54:28;;;;;;;4.47;4.13;;;15.90;76.10;;;;;;5001817;28;20542;-46
2021/09/24 03:56:55;;;;;;;5.63;4.00;;;15.90;76.10;;;;;;5002400;28;20516;-46
2021/09/24 03:59:22;;;;;;;5.63;4.10;;;15.90;76.30;;;;;;5001029;28;20540;-46
2021/09/24 04:01:49;;;;;;;5.60;3.80;;;15.80;76.40;;;;;;5002693;28;20447;-46
2021/09/24 04:04:16;;;;;;;7.23;4.57;;;15.90;76.50;;;;;;5003541;28;20981;-46
2021/09/24 04:06:43;;;;;;;6.47;4.70;;;15.80;76.50;;;;;;5002405;28;20445;-46
2021/09/24 04:09:10;;;;;;;6.53;4.13;;;15.80;76.60;;;;;;5002368;28;20567;-45
2021/09/24 04:11:38;;;;;;;5.03;4.53;;;15.80;76.60;;;;;;5003947;28;20528;-45
2021/09/24 04:14:06;;;;;;;5.17;4.70;;;15.80;76.70;;;;;;5004710;28;20497;-46
2021/09/24 04:16:32;;;;;;;7.47;5.10;;;15.80;76.70;;;;;;5005018;28;20440;-46
2021/09/24 04:18:59;;;;;;;5.40;4.40;;;15.70;76.70;;;;;;5006552;28;20990;-46
2021/09/24 04:21:26;;;;;;;4.87;4.47;;;15.70;76.80;;;;;;5008693;28;20502;-46
2021/09/24 04:23:53;;;;;;;5.00;4.50;;;15.70;76.80;;;;;;5004643;28;20514;-46
2021/09/24 04:26:20;;;;;;;5.83;4.87;;;15.70;76.90;;;;;;5008193;28;20482;-45
2021/09/24 04:28:47;;;;;;;6.57;4.30;;;15.70;76.80;;;;;;5002921;28;20531;-46
2021/09/24 04:31:13;;;;;;;5.30;4.63;;;15.70;76.70;;;;;;5006082;28;20499;-46
2021/09/24 04:33:40;;;;;;;6.50;4.70;;;15.70;76.80;;;;;;5006117;28;20520;-46
2021/09/24 04:36:07;;;;;;;6.40;3.90;;;15.70;76.90;;;;;;5005923;28;20793;-46
2021/09/24 04:38:34;;;;;;;7.30;5.20;;;15.70;77.10;;;;;;5005657;28;20448;-45
2021/09/24 04:41:01;;;;;;;6.03;4.73;;;15.70;77.10;;;;;;5006692;28;20444;-45
2021/09/24 04:43:27;;;;;;;5.20;3.90;;;15.60;77.20;;;;;;5005929;28;20452;-46
2021/09/24 04:45:54;;;;;;;4.57;4.17;;;15.60;77.30;;;;;;5007358;28;20946;-45
2021/09/24 04:48:21;;;;;;;6.83;4.40;;;15.60;77.30;;;;;;5010485;28;20850;-46
2021/09/24 04:50:47;;;;;;;6.97;5.43;;;15.60;77.30;;;;;;5002011;28;20458;-46
2021/09/24 04:53:14;;;;;;;8.07;5.00;;;15.60;77.30;;;;;;5005229;28;20459;-45
2021/09/24 04:55:41;;;;;;;5.70;4.93;;;15.60;77.30;;;;;;5004298;28;20540;-45
2021/09/24 04:58:07;;;;;;;6.87;5.07;;;15.60;77.20;;;;;;5005669;28;20461;-46
2021/09/24 05:00:34;;;;;;;7.33;5.10;;;15.60;77.30;;;;;;5003364;28;20788;-45
2021/09/24 05:03:01;;;;;;;6.47;5.07;;;15.50;77.40;;;;;;5003106;28;20466;-45
2021/09/24 05:05:28;;;;;;;7.20;5.23;;;15.60;77.50;;;;;;5004392;28;20540;-46
2021/09/24 05:07:55;;;;;;;5.30;4.70;;;15.60;77.50;;;;;;5005230;28;20495;-45
2021/09/24 05:10:21;;;;;;;5.03;4.60;;;15.50;77.60;;;;;;5007595;28;20808;-45
2021/09/24 05:12:48;;;;;;;8.40;5.70;;;15.50;77.60;;;;;;5008414;28;20980;-46
2021/09/24 05:15:15;;;;;;;6.10;5.50;;;15.50;77.70;;;;;;5007001;28;20476;-46
2021/09/24 05:17:41;;;;;;;5.13;4.63;;;15.50;77.70;;;;;;5018586;28;20976;-46
2021/09/24 05:20:09;;;;;;;6.43;4.97;;;15.50;77.70;;;;;;5000764;28;20496;-46
2021/09/24 05:22:35;;;;;;;8.37;5.50;;;15.40;77.80;;;;;;5020995;28;20462;-46
2021/09/24 05:25:04;;;;;;;5.37;4.37;;;15.40;78.10;;;;;;5016852;28;20449;-46
2021/09/24 05:27:30;;;;;;;6.43;4.90;;;15.40;78.00;;;;;;5001780;28;20814;-45
2021/09/24 05:29:57;;;;;;;8.70;5.30;;;15.40;78.10;;;;;;5005482;28;20954;-45
2021/09/24 05:32:24;;;;;;;6.70;5.47;;;15.40;78.20;;;;;;5006948;28;20464;-46
2021/09/24 05:34:51;;;;;;;5.63;4.90;;;15.40;78.30;;;;;;5003693;28;20442;-46
2021/09/24 05:37:18;;;;;;;10.90;5.80;;;15.40;78.50;;;;;;5006234;28;20441;-45
2021/09/24 05:39:45;;;;;;;6.70;5.20;;;15.40;78.50;;;;;;5008085;28;20824;-45
2021/09/24 05:42:14;;;;;;;8.03;5.30;;;15.40;78.60;;;;;;5014620;28;20475;-46
2021/09/24 05:44:41;;;;;;;5.80;5.17;;;15.30;78.60;;;;;;5002065;28;20469;-46
2021/09/24 05:47:08;;;;;;;6.07;5.43;;;15.30;78.70;;;;;;5001841;28;20488;-46
2021/09/24 05:49:34;;;;;;;6.57;5.97;;;15.30;78.90;;;;;;5002808;28;20492;-46
2021/09/24 05:52:01;;;;;;;7.83;6.87;;;15.30;78.90;;;;;;5003350;28;20456;-46
2021/09/24 05:54:28;;;;;;;7.00;5.70;;;15.30;78.90;;;;;;5001280;28;20721;-45
2021/09/24 05:56:55;;;;;;;10.50;6.00;;;15.30;78.90;;;;;;5006934;28;20820;-45
2021/09/24 05:59:22;;;;;;;10.93;6.33;;;15.30;79.00;;;;;;5003660;28;20491;-46
2021/09/24 06:01:49;;;;;;;7.80;6.20;;;15.30;79.00;;;;;;5000718;28;20479;-46
2021/09/24 06:04:19;;;;;;;7.00;5.70;;;15.30;79.00;;;;;;5003340;28;20809;-46
2021/09/24 06:06:46;;;;;;;5.73;5.13;;;15.30;79.00;;;;;;5002054;28;20470;-45
2021/09/24 06:09:13;;;;;;;10.23;5.93;;;15.30;78.90;;;;;;5003947;28;20487;-46
2021/09/24 06:11:41;;;;;;;6.83;5.77;;;15.30;79.00;;;;;;5002848;28;20830;-46
2021/09/24 06:14:08;;;;;;;7.83;6.67;;;15.30;79.00;;;;;;5002495;28;20507;-45
2021/09/24 06:16:38;;;;;;;10.50;5.60;;;15.30;79.10;;;;;;4999943;28;20488;-45
2021/09/24 06:19:05;;;;;;;6.93;6.23;;;15.30;79.20;;;;;;5002902;28;20536;-46
2021/09/24 06:21:34;;;;;;;7.17;5.67;;;15.40;79.30;;;;;;5000453;28;20479;-45
2021/09/24 06:24:01;;;;;;;7.20;6.23;;;15.40;79.30;;;;;;5001794;28;20506;-46
2021/09/24 06:26:27;;;;;;;7.67;6.30;;;15.40;79.40;;;;;;5002057;28;20484;-45
2021/09/24 06:28:54;;;;;;;14.23;6.27;;;15.50;79.30;;;;;;5000212;28;21016;-46
2021/09/24 06:31:21;;;;;;;7.33;5.83;;;15.50;79.40;;;;;;5003255;28;20471;-45
2021/09/24 06:33:49;;;;;;;8.37;6.50;;;15.50;79.60;;;;;;5002414;28;20456;-46
2021/09/24 06:36:18;;;;;;;7.70;6.70;;;15.50;79.60;;;;;;5003090;28;20459;-46
2021/09/24 06:38:45;;;;;;;7.97;5.90;;;15.50;79.80;;;;;;5002030;28;20460;-46
2021/09/24 06:41:13;;;;;;;10.00;6.30;;;15.60;80.30;;;;;;5016423;28;20466;-46
2021/09/24 06:43:40;;;;;;;7.50;6.40;;;15.70;80.20;;;;;;5002986;28;20460;-46
2021/09/24 06:46:06;;;;;;;8.67;5.80;;;15.80;80.10;;;;;;5003715;28;20797;-46
2021/09/24 06:48:33;;;;;;;7.57;6.60;;;15.80;80.00;;;;;;5004616;28;20799;-46
2021/09/24 06:51:02;;;;;;;12.77;6.27;;;15.80;79.90;;;;;;5007015;28;20450;-46
2021/09/24 06:53:28;;;;;;;7.70;6.27;;;15.90;79.80;;;;;;5004230;28;20472;-46
2021/09/24 06:55:59;;;;;;;7.97;5.77;;;15.90;79.70;;;;;;5005669;28;20943;-46
2021/09/24 06:58:26;;;;;;;10.30;6.40;;;16.00;79.60;;;;;;5001581;28;20859;-46
2021/09/24 07:00:53;;;;;;;6.90;6.30;;;16.00;79.60;;;;;;5003358;28;20478;-46
2021/09/24 07:03:20;;;;;;;7.43;6.30;;;16.00;79.70;;;;;;5003361;28;20467;-46
2021/09/24 07:05:47;;;;;;;13.13;7.30;;;16.00;79.80;;;;;;5002745;28;21031;-46
2021/09/24 07:08:14;;;;;;;7.50;6.27;;;16.10;79.90;;;;;;5001403;28;20485;-46
2021/09/24 07:10:41;;;;;;;9.90;5.80;;;16.10;79.80;;;;;;5001944;28;20456;-46
2021/09/24 07:13:08;;;;;;;6.57;5.97;;;16.20;80.00;;;;;;5001509;28;20480;-46
2021/09/24 07:15:35;;;;;;;7.90;6.33;;;16.30;80.00;;;;;;5000749;28;20808;-46
2021/09/24 07:18:01;;;;;;;7.53;5.80;;;16.40;79.90;;;;;;5003554;28;20787;-46
2021/09/24 07:20:28;;;;;;;8.07;6.33;;;16.50;79.80;;;;;;5016812;28;20472;-46
2021/09/24 07:23:15;;;;;;;7.57;5.90;;;16.70;79.20;;;;;;5006399;28;21280;-46
2021/09/24 07:25:42;;;;;;;7.70;6.20;;;16.80;79.10;;;;;;4999716;28;20740;-45
2021/09/24 07:28:08;;;;;;;7.30;5.70;;;16.90;78.70;;;;;;5000905;28;20683;-47
2021/09/24 07:30:36;;;;;;;7.53;5.83;;;17.00;78.40;;;;;;5000021;28;20449;-46
2021/09/24 07:33:03;;;;;;;7.83;6.27;;;17.10;78.00;;;;;;4999466;28;20794;-46
2021/09/24 07:35:30;;;;;;;6.60;5.73;;;17.20;78.00;;;;;;5015273;28;20466;-46
2021/09/24 07:37:56;;;;;;;6.37;5.73;;;17.30;77.30;;;;;;5000201;28;20967;-46
2021/09/24 07:40:24;;;;;;;6.80;5.60;;;17.50;77.10;;;;;;4999560;28;20440;-46
2021/09/24 07:42:51;;;;;;;8.20;5.87;;;17.60;76.90;;;;;;5002435;28;20449;-46
2021/09/24 07:45:18;;;;;;;5.80;5.23;;;17.70;76.20;;;;;;5008547;28;20451;-46
2021/09/24 07:47:44;;;;;;;5.80;5.20;;;17.80;76.10;;;;;;5004491;28;20457;-46
2021/09/24 07:50:11;;;;;;;9.03;5.37;;;18.00;75.50;;;;;;5004210;28;20497;-46
2021/09/24 07:52:38;;;;;;;7.10;5.80;;;18.10;75.10;;;;;;5004987;28;20463;-47
2021/09/24 07:55:06;;;;;;;10.40;5.50;;;18.30;74.50;;;;;;5009566;28;20534;-46
2021/09/24 07:57:33;;;;;;;7.90;5.50;;;18.50;73.70;;;;;;5007779;28;20444;-46
2021/09/24 08:00:01;;;;;;;7.30;5.63;;;18.60;72.80;;;;;;5007679;28;20544;-46
2021/09/24 08:02:27;;;;;;;6.33;5.10;;;18.80;72.60;;;;;;5008071;28;20900;-46
2021/09/24 08:04:54;;;;;;;6.57;5.40;;;18.90;71.70;;;;;;5002985;28;20474;-46
2021/09/24 08:07:21;;;;;;;5.63;4.80;;;19.10;71.50;;;;;;5005892;28;20825;-46
2021/09/24 08:09:48;;;;;;;7.70;4.80;;;19.20;71.10;;;;;;5007697;28;20993;-46
2021/09/24 08:12:15;;;;;;;5.80;5.20;;;19.40;70.30;;;;;;5004852;28;20448;-47
2021/09/24 08:14:41;;;;;;;5.63;4.73;;;19.50;69.80;;;;;;5024282;28;20478;-46
2021/09/24 08:17:09;;;;;;;7.37;4.60;;;19.60;69.60;;;;;;5023086;28;20451;-46
2021/09/24 08:19:38;;;;;;;8.03;4.73;;;19.70;69.60;;;;;;5002548;28;20476;-46
2021/09/24 08:22:05;;;;;;;5.03;4.17;;;19.90;69.30;;;;;;5004336;28;20459;-46
2021/09/24 08:24:32;;;;;;;6.20;4.50;;;20.10;69.00;;;;;;5005738;28;20453;-46
2021/09/24 08:26:58;;;;;;;6.73;3.83;;;20.20;68.20;;;;;;5003275;28;20453;-45
2021/09/24 08:29:25;;;;;;;4.37;3.30;;;20.40;67.90;;;;;;5006813;28;20586;-46
2021/09/24 08:31:52;;;;;;;6.83;3.90;;;20.60;67.40;;;;;;5003020;28;20827;-46
2021/09/24 08:34:18;;;;;;;3.97;3.57;;;20.70;66.70;;;;;;5009578;28;20449;-46
2021/09/24 08:36:45;;;;;;;6.50;4.30;;;20.90;66.60;;;;;;5002504;28;20516;-46
2021/09/24 08:39:12;;;;;;;5.07;4.10;;;21.10;65.60;;;;;;5003336;28;20472;-46
2021/09/24 08:41:39;;;;;;;5.90;4.30;;;21.20;65.10;;;;;;5003332;28;20445;-46
2021/09/24 08:44:06;;;;;;;4.00;3.60;;;21.40;64.10;;;;;;5004945;28;20950;-46
2021/09/24 08:46:34;;;;;;;5.27;3.70;;;21.40;64.00;;;;;;5008530;28;20471;-46
2021/09/24 08:49:05;;;;;;;4.97;4.20;;;21.50;64.20;;;;;;5007150;28;20587;-46
2021/09/24 08:51:34;;;;;;;6.93;4.20;;;21.60;63.00;;;;;;5019549;28;20479;-45
2021/09/24 08:54:04;;;;;;;5.70;4.40;;;21.50;63.40;;;;;;5004675;28;20464;-46
2021/09/24 08:56:31;;;;;;;5.53;4.60;;;21.40;64.10;;;;;;5001712;28;20460;-46
2021/09/24 08:58:58;;;;;;;5.10;4.37;;;21.30;64.70;;;;;;5003553;28;20460;-46
2021/09/24 09:01:25;;;;;;;4.70;3.93;;;21.30;65.30;;;;;;5005849;28;20860;-45
2021/09/24 09:03:52;;;;;;;4.00;3.47;;;21.20;64.90;;;;;;5011398;28;20527;-45
2021/09/24 09:06:19;;;;;;;5.30;3.30;;;21.20;65.50;;;;;;5005930;28;20858;-46
2021/09/24 09:08:46;;;;;;;4.30;3.90;;;21.10;65.70;;;;;;5008255;28;20498;-46
2021/09/24 09:11:19;;;;;;;4.73;3.27;;;21.00;66.20;;;;;;5003428;28;20520;-46
2021/09/24 09:13:48;;;;;;;5.80;3.70;;;21.00;66.50;;;;;;5007666;28;20468;-46
2021/09/24 09:16:26;;;;;;;5.90;3.60;;;21.00;66.70;;;;;;5023354;28;20444;-46
2021/09/24 09:19:04;;;;;;;4.23;3.17;;;21.00;67.10;;;;;;5018299;28;20938;-46
2021/09/24 09:21:31;;;;;;;7.00;3.90;;;20.90;67.30;;;;;;5005595;28;20825;-46
2021/09/24 09:23:58;;;;;;;4.70;3.00;;;21.00;66.80;;;;;;5019620;28;20444;-45
2021/09/24 09:26:26;;;;;;;3.83;2.87;;;21.00;66.90;;;;;;5014744;28;20448;-46
2021/09/24 09:28:56;;;;;;;5.87;3.47;;;21.10;66.90;;;;;;5006731;28;20848;-46
2021/09/24 09:31:32;;;;;;;5.03;3.50;;;21.10;67.10;;;;;;5005617;28;20492;-46
2021/09/24 09:34:01;;;;;;;3.80;3.10;;;21.10;66.70;;;;;;5005832;28;20464;-46
2021/09/24 09:36:46;;;;;;;4.83;3.30;;;21.00;66.80;;;;;;5004888;28;20508;-46
2021/09/24 09:39:15;;;;;;;5.40;3.13;;;21.00;66.90;;;;;;5002827;28;20445;-46
2021/09/24 09:41:53;;;;;;;4.60;2.90;;;20.90;67.20;;;;;;5005125;28;20453;-46
2021/09/24 09:44:32;;;;;;;5.63;2.90;;;20.90;67.60;;;;;;5003869;28;20452;-46
2021/09/24 09:46:59;;;;;;;4.80;3.13;;;20.90;67.90;;;;;;5007069;28;20456;-46
2021/09/24 09:49:29;;;;;;;5.13;2.93;;;20.90;67.70;;;;;;5002022;28;20511;-46
2021/09/24 09:52:09;;;;;;;4.00;2.60;;;20.90;67.80;;;;;;5001571;28;20445;-46
2021/09/24 09:54:36;;;;;;;5.47;2.70;;;21.00;67.80;;;;;;5007052;28;20483;-46
2021/09/24 09:57:12;;;;;;;5.37;2.40;;;21.00;67.30;;;;;;5002740;28;20445;-46
2021/09/24 09:59:40;;;;;;;3.00;2.60;;;21.30;66.60;;;;;;4999029;28;20453;-46
2021/09/24 10:02:15;;;;;;;3.17;2.40;;;21.50;66.40;;;;;;5003778;28;20468;-46
2021/09/24 10:04:47;;;;;;;1.93;1.83;;;21.70;65.10;;;;;;5020072;28;20456;-46
2021/09/24 10:07:15;;;;;;;3.23;2.40;;;21.80;64.90;;;;;;5006479;28;20487;-46
2021/09/24 10:09:43;;;;;;;2.60;2.40;;;21.80;64.90;;;;;;5006455;28;20572;-46
2021/09/24 10:12:17;;;;;;;2.93;2.40;;;21.80;64.90;;;;;;5004778;28;20459;-46
2021/09/24 10:14:44;;;;;;;2.50;2.23;;;21.90;65.40;;;;;;5003903;28;20474;-46
2021/09/24 10:17:12;;;;;;;3.30;2.13;;;22.10;65.20;;;;;;5001988;28;20448;-46
2021/09/24 10:19:39;;;;;;;2.50;2.30;;;22.30;63.60;;;;;;5005208;28;20836;-46
2021/09/24 10:22:06;;;;;;;3.00;2.60;;;22.40;63.60;;;;;;5001921;28;20770;-46
2021/09/24 10:24:33;;;;;;;2.70;2.07;;;22.40;63.70;;;;;;5004617;28;20458;-46
2021/09/24 10:27:03;;;;;;;2.50;2.30;;;22.30;63.00;;;;;;5007286;28;20460;-46
2021/09/24 10:29:33;;;;;;;2.93;2.53;;;22.20;63.20;;;;;;5006188;28;20488;-46
2021/09/24 10:32:15;;;;;;;3.03;2.83;;;22.10;64.10;;;;;;5002091;28;20454;-46
2021/09/24 10:35:10;;;;;;;2.60;2.40;;;22.10;64.20;;;;;;5002484;28;20459;-46
2021/09/24 10:37:45;;;;;;;3.33;2.40;;;22.00;64.30;;;;;;5000654;28;20452;-46
2021/09/24 10:40:21;;;;;;;2.70;2.17;;;22.20;63.80;;;;;;5004155;28;20466;-46
2021/09/24 10:42:58;;;;;;;2.33;2.17;;;22.50;63.50;;;;;;5003177;28;20459;-46
2021/09/24 10:45:35;;;;;;;2.50;2.30;;;22.70;62.90;;;;;;5005134;28;20451;-46
2021/09/24 10:48:06;;;;;;;4.20;2.17;;;22.80;62.90;;;;;;5001265;28;20456;-46
2021/09/24 10:50:39;;;;;;;1.83;1.73;;;22.70;62.50;;;;;;5004044;28;20488;-46
2021/09/24 10:53:18;;;;;;;3.83;1.83;;;22.60;62.30;;;;;;5008759;28;20452;-45
2021/09/24 10:56:05;;;;;;;3.93;2.03;;;22.40;62.70;;;;;;5003451;28;20469;-45
2021/09/24 10:58:31;;;;;;;2.30;2.10;;;22.20;62.60;;;;;;4994901;28;20460;-45
2021/09/24 11:01:00;;;;;;;2.73;2.03;;;22.10;63.00;;;;;;5004665;28;20459;-45
2021/09/24 11:03:29;;;;;;;4.60;2.20;;;21.90;63.50;;;;;;5006268;28;20453;-45
2021/09/24 11:06:06;;;;;;;2.20;2.00;;;21.80;63.90;;;;;;5003962;28;20452;-45
2021/09/24 11:08:33;;;;;;;2.20;2.00;;;21.70;64.20;;;;;;5004369;28;20452;-45
2021/09/24 11:11:12;;;;;;;2.13;1.90;;;21.60;65.00;;;;;;5002360;28;20999;-45
2021/09/24 11:13:42;;;;;;;2.47;2.00;;;21.60;64.60;;;;;;5001702;28;20469;-45
2021/09/24 11:16:17;;;;;;;3.00;2.13;;;21.50;64.40;;;;;;5006075;28;20945;-45
2021/09/24 11:18:49;;;;;;;2.20;1.80;;;21.40;64.60;;;;;;5004192;28;21036;-45
2021/09/24 11:21:21;;;;;;;2.77;2.00;;;21.40;64.90;;;;;;5004273;28;20526;-45
2021/09/24 11:23:53;;;;;;;2.70;1.63;;;21.30;65.00;;;;;;5005028;28;20456;-45
2021/09/24 11:26:22;;;;;;;2.63;2.33;;;21.20;65.20;;;;;;5001758;28;20983;-45
2021/09/24 11:29:03;;;;;;;2.07;1.77;;;21.20;65.00;;;;;;4999269;28;20457;-45
2021/09/24 11:32:03;;;;;;;2.73;1.83;;;21.20;65.30;;;;;;5005534;28;20462;-44
2021/09/24 11:34:33;;;;;;;2.80;2.03;;;21.20;65.50;;;;;;5005103;28;20550;-45
2021/09/24 11:37:02;;;;;;;4.03;1.90;;;21.20;65.50;;;;;;5003962;28;20448;-45
2021/09/24 11:39:29;;;;;;;3.33;1.73;;;21.20;65.80;;;;;;5000999;28;20479;-45
2021/09/24 11:42:09;;;;;;;2.30;1.60;;;21.20;65.70;;;;;;5002699;28;20560;-45
2021/09/24 11:44:41;;;;;;;1.73;1.30;;;21.20;65.60;;;;;;4995957;28;20547;-45
2021/09/24 11:47:29;;;;;;;2.60;1.70;;;21.20;65.10;;;;;;4999264;28;20457;-46
2021/09/24 11:50:08;;;;;;;1.90;1.50;;;21.20;65.10;;;;;;4998917;28;20510;-45
2021/09/24 11:52:52;;;;;;;2.07;1.70;;;21.20;65.10;;;;;;4999951;28;20456;-45
2021/09/24 11:55:22;;;;;;;2.33;1.20;;;21.20;65.00;;;;;;4998489;28;20457;-45
2021/09/24 11:58:06;;;;;;;0.80;0.70;;;21.20;64.80;;;;;;5002262;28;20464;-45
2021/09/24 12:00:35;;;;;;;1.03;0.83;;;21.30;64.60;;;;;;4998109;28;20457;-46
2021/09/24 12:03:22;;;;;;;0.80;0.60;;;21.30;64.00;;;;;;5001584;28;20445;-45
2021/09/24 12:06:08;;;;;;;1.57;0.63;;;21.30;64.30;;;;;;5003195;28;20460;-45
2021/09/24 12:08:46;;;;;;;0.93;0.60;;;21.30;65.20;;;;;;5000760;28;20496;-45
2021/09/24 12:11:22;;;;;;;1.03;0.70;;;21.40;64.70;;;;;;5000235;28;20491;-45
2021/09/24 12:13:58;;;;;;;1.30;0.63;;;21.40;64.20;;;;;;5002111;28;20464;-45
2021/09/24 12:16:30;;;;;;;1.63;0.53;;;21.40;64.50;;;;;;5000572;28;20510;-45
2021/09/24 12:19:09;;;;;;;1.40;0.87;;;21.40;64.50;;;;;;4999668;28;20456;-45
2021/09/24 12:21:39;;;;;;;0.90;0.40;;;21.50;64.30;;;;;;4999350;28;20467;-45
2021/09/24 12:24:21;;;;;;;0.73;0.50;;;21.40;64.80;;;;;;5003554;28;20452;-46
2021/09/24 12:27:00;;;;;;;2.97;0.97;;;21.40;64.80;;;;;;4997430;28;20448;-46
2021/09/24 12:29:28;;;;;;;1.57;0.90;;;21.40;64.70;;;;;;4999456;28;20554;-45
2021/09/24 12:32:03;;;;;;;0.80;0.60;;;21.40;65.10;;;;;;5007574;28;20526;-45
2021/09/24 12:34:49;;;;;;;1.03;0.50;;;21.40;65.00;;;;;;5005768;28;20526;-45
2021/09/24 12:37:31;;;;;;;1.00;0.70;;;21.40;65.50;;;;;;5006434;28;21191;-46
2021/09/24 12:40:01;;;;;;;1.00;0.60;;;21.30;65.30;;;;;;5004480;28;20510;-46
2021/09/24 12:42:36;;;;;;;1.97;0.90;;;21.30;65.30;;;;;;5005230;28;20460;-45
2021/09/24 12:45:09;;;;;;;1.10;0.77;;;21.30;65.70;;;;;;5004505;28;20460;-46
2021/09/24 12:47:38;;;;;;;2.10;0.80;;;21.30;65.70;;;;;;5005403;28;20474;-46
2021/09/24 12:50:08;;;;;;;1.67;1.33;;;21.40;65.90;;;;;;5002435;28;20496;-45
2021/09/24 12:52:37;;;;;;;1.37;0.70;;;21.40;65.60;;;;;;5005126;28;20461;-45
2021/09/24 12:55:08;;;;;;;1.60;1.50;;;21.40;65.60;;;;;;5005319;28;20511;-46